createdAt,value
2022-07-28T00:03:36.336Z,0.50
2022-07-28T00:08:39.247Z,0.40
2022-07-28T00:13:41.385Z,0.40
2022-07-28T00:18:43.801Z,0.40
2022-07-28T00:23:45.836Z,0.30
2022-07-28T00:28:48.421Z,0.30
2022-07-28T00:33:50.363Z,0.30
2022-07-28T00:38:53.245Z,0.43
2022-07-28T00:43:55.545Z,0.20
2022-07-28T00:48:57.767Z,0.30
2022-07-28T00:53:59.758Z,0.40
2022-07-28T00:59:02.001Z,0.30
2022-07-28T01:04:04.708Z,0.47
2022-07-28T01:09:52.512Z,0.47
2022-07-28T01:15:03.615Z,0.22
2022-07-28T01:20:37.526Z,0.20
2022-07-28T01:25:57.445Z,0.28
2022-07-28T01:31:05.699Z,0.40
2022-07-28T01:36:11.517Z,0.30
2022-07-28T01:41:19.664Z,0.40
2022-07-28T01:46:22.902Z,0.10
2022-07-28T01:51:28.412Z,0.40
2022-07-28T01:56:33.678Z,0.30
2022-07-28T02:01:38.561Z,0.30
2022-07-28T02:06:43.099Z,0.25
2022-07-28T02:11:48.244Z,0.22
2022-07-28T02:16:56.370Z,0.40
2022-07-28T02:21:58.521Z,0.30
2022-07-28T02:27:19.783Z,0.30
2022-07-28T02:32:37.143Z,0.20
2022-07-28T02:37:45.588Z,0.55
2022-07-28T02:42:50.057Z,0.30
2022-07-28T02:47:56.413Z,0.20
2022-07-28T02:53:15.134Z,0.60
2022-07-28T02:58:24.081Z,0.20
2022-07-28T03:03:26.297Z,0.20
2022-07-28T03:08:28.579Z,0.30
2022-07-28T03:13:30.390Z,0.40
2022-07-28T03:18:32.672Z,0.20
2022-07-28T03:23:42.120Z,0.17
2022-07-28T03:28:46.251Z,0.10
2022-07-28T03:33:49.166Z,0.20
2022-07-28T03:39:03.851Z,0.30
2022-07-28T03:44:06.279Z,0.20
2022-07-28T03:49:08.489Z,0.20
2022-07-28T03:54:10.967Z,0.28
2022-07-28T03:59:13.145Z,0.20
2022-07-28T04:04:15.991Z,0.40
2022-07-28T04:09:18.188Z,0.20
2022-07-28T04:14:20.391Z,0.20
2022-07-28T04:19:22.639Z,0.38
2022-07-28T04:24:24.683Z,0.40
2022-07-28T04:29:27.277Z,0.40
2022-07-28T04:34:29.728Z,0.30
2022-07-28T04:39:31.686Z,0.38
2022-07-28T04:44:34.434Z,0.20
2022-07-28T04:49:36.521Z,0.30
2022-07-28T04:54:38.862Z,0.20
2022-07-28T04:59:40.809Z,0.30
2022-07-28T05:04:42.884Z,0.30
2022-07-28T05:09:44.776Z,0.32
2022-07-28T05:14:46.718Z,0.20
2022-07-28T05:19:48.937Z,0.30
2022-07-28T05:24:51.085Z,0.25
2022-07-28T05:29:53.290Z,0.50
2022-07-28T05:34:55.411Z,0.20
2022-07-28T05:39:57.470Z,0.17
2022-07-28T05:44:59.937Z,0.20
2022-07-28T05:50:02.368Z,0.20
2022-07-28T05:55:05.685Z,0.30
2022-07-28T06:00:09.504Z,0.20
2022-07-28T06:05:12.227Z,0.17
2022-07-28T06:10:16.496Z,0.52
2022-07-28T06:15:21.918Z,0.57
2022-07-28T06:20:24.899Z,0.47
2022-07-28T06:25:28.630Z,0.30
2022-07-28T06:30:32.176Z,0.52
2022-07-28T06:35:43.223Z,0.50
2022-07-28T06:40:50.436Z,0.60
2022-07-28T06:45:52.638Z,0.35
2022-07-28T06:50:54.795Z,0.65
2022-07-28T06:55:56.931Z,0.60
2022-07-28T07:00:59.155Z,0.50
2022-07-28T07:06:01.026Z,0.30
2022-07-28T07:11:03.274Z,0.60
2022-07-28T07:16:05.547Z,0.60
2022-07-28T07:21:07.957Z,0.45
2022-07-28T07:26:09.929Z,0.30
2022-07-28T07:31:12.126Z,0.55
2022-07-28T07:36:14.328Z,0.50
2022-07-28T07:41:16.170Z,0.60
2022-07-28T07:46:18.584Z,0.43
2022-07-28T07:51:20.537Z,0.32
2022-07-28T07:56:22.467Z,0.52
2022-07-28T08:01:24.611Z,0.40
2022-07-28T08:06:28.213Z,0.40
2022-07-28T08:11:31.181Z,0.50
2022-07-28T08:16:33.443Z,0.50
2022-07-28T08:21:35.365Z,1.17
2022-07-28T08:26:37.412Z,1.27
2022-07-28T08:31:39.288Z,1.08
2022-07-28T08:36:41.302Z,0.70
2022-07-28T08:41:52.067Z,0.70
2022-07-28T08:46:54.271Z,1.10
2022-07-28T08:51:58.512Z,0.70
2022-07-28T08:57:01.818Z,1.00
2022-07-28T09:02:03.946Z,0.65
2022-07-28T09:07:06.863Z,0.77
2022-07-28T09:12:09.337Z,0.77
2022-07-28T09:17:11.428Z,0.50
2022-07-28T09:22:13.898Z,0.50
2022-07-28T09:27:16.400Z,0.73
2022-07-28T09:32:20.239Z,0.60
2022-07-28T09:37:28.397Z,0.70
2022-07-28T09:42:46.655Z,0.40
2022-07-28T09:47:48.956Z,0.70
2022-07-28T09:52:51.198Z,0.70
2022-07-28T09:57:55.226Z,0.40
2022-07-28T10:02:57.273Z,0.52
2022-07-28T10:07:59.245Z,0.50
2022-07-28T10:13:06.491Z,0.70
2022-07-28T10:18:08.477Z,0.30
2022-07-28T10:23:12.989Z,0.30
2022-07-28T10:28:20.674Z,0.50
2022-07-28T10:33:25.128Z,0.47
2022-07-28T10:38:33.761Z,0.57
2022-07-28T10:43:37.037Z,0.50
2022-07-28T10:48:45.225Z,0.68
2022-07-28T10:53:55.424Z,0.60
2022-07-28T10:59:38.869Z,1.10
2022-07-28T11:04:52.129Z,0.43
2022-07-28T11:09:55.171Z,0.80
2022-07-28T11:14:58.653Z,0.95
2022-07-28T11:20:29.683Z,0.85
2022-07-28T11:25:31.853Z,0.57
2022-07-28T11:30:42.632Z,0.57
2022-07-28T11:35:44.273Z,0.60
2022-07-28T11:40:51.841Z,0.70
2022-07-28T11:46:02.469Z,0.52
2022-07-28T11:51:04.353Z,0.65
2022-07-28T11:56:11.822Z,0.60
2022-07-28T12:01:17.984Z,0.43
2022-07-28T12:06:27.216Z,0.38
2022-07-28T12:11:36.714Z,0.50
2022-07-28T12:16:41.936Z,0.77
2022-07-28T12:21:49.204Z,0.80
2022-07-28T12:26:51.478Z,0.40
2022-07-28T12:31:56.073Z,0.90
2022-07-28T12:37:02.376Z,0.65
2022-07-28T12:42:09.350Z,0.60
2022-07-28T12:47:13.256Z,0.45
2022-07-28T12:52:22.720Z,0.60
2022-07-28T12:57:50.901Z,0.60
2022-07-28T13:02:57.072Z,0.68
2022-07-28T13:08:03.565Z,0.80
2022-07-28T13:13:07.714Z,0.77
2022-07-28T13:18:09.600Z,0.88
2022-07-28T13:23:11.307Z,0.80
2022-07-28T13:28:31.664Z,0.70
2022-07-28T13:33:33.563Z,0.90
2022-07-28T13:38:35.474Z,0.60
2022-07-28T13:43:37.584Z,0.70
2022-07-28T13:48:57.874Z,0.47
2022-07-28T13:54:02.340Z,0.45
2022-07-28T13:59:04.244Z,1.02
2022-07-28T14:04:14.971Z,0.73
2022-07-28T14:09:21.196Z,0.50
2022-07-28T14:14:25.678Z,0.80
2022-07-28T14:19:39.298Z,0.95
2022-07-28T14:24:44.951Z,0.57
2022-07-28T14:29:47.272Z,0.73
2022-07-28T14:34:49.281Z,0.47
2022-07-28T14:39:51.990Z,0.73
2022-07-28T14:44:54.121Z,0.77
2022-07-28T14:49:58.171Z,0.80
2022-07-28T14:55:00.846Z,0.60
2022-07-28T15:00:03.005Z,0.73
2022-07-28T15:05:05.887Z,0.73
2022-07-28T15:10:08.219Z,0.70
2022-07-28T15:15:10.403Z,0.93
2022-07-28T15:20:12.481Z,0.73
2022-07-28T15:25:14.450Z,0.50
2022-07-28T15:30:16.786Z,0.50
2022-07-28T15:35:19.824Z,0.60
2022-07-28T15:40:22.461Z,0.82
2022-07-28T15:45:24.453Z,0.80
2022-07-28T15:50:26.627Z,0.80
2022-07-28T15:55:28.593Z,0.63
2022-07-28T16:00:30.805Z,1.20
2022-07-28T16:05:32.959Z,0.70
2022-07-28T16:10:34.885Z,0.85
2022-07-28T16:15:37.176Z,0.85
2022-07-28T16:20:39.223Z,0.82
2022-07-28T16:25:44.898Z,0.90
2022-07-28T16:30:48.121Z,0.65
2022-07-28T16:35:50.056Z,0.60
2022-07-28T16:40:54.395Z,0.90
2022-07-28T16:45:56.385Z,0.85
2022-07-28T16:50:58.152Z,1.00
2022-07-28T16:56:00.072Z,0.93
2022-07-28T17:01:02.114Z,0.85
2022-07-28T17:06:08.366Z,0.98
2022-07-28T17:11:10.196Z,1.05
2022-07-28T17:16:12.367Z,1.15
2022-07-28T17:21:14.307Z,0.70
2022-07-28T17:31:39.299Z,0.98
2022-07-28T17:36:45.695Z,0.63
2022-07-28T17:41:47.695Z,0.70
2022-07-28T17:46:50.326Z,0.98
2022-07-28T17:51:52.440Z,0.82
2022-07-28T17:56:54.507Z,0.88
2022-07-28T18:01:56.599Z,0.90
2022-07-28T18:06:58.496Z,0.82
2022-07-28T18:12:00.421Z,0.90
2022-07-28T18:17:02.762Z,0.52
2022-07-28T18:22:05.506Z,1.45
2022-07-28T18:27:07.319Z,0.70
2022-07-28T18:32:09.766Z,1.10
2022-07-28T18:37:15.887Z,0.75
2022-07-28T18:42:17.800Z,0.93
2022-07-28T18:47:20.405Z,0.65
2022-07-28T18:52:23.275Z,1.20
2022-07-28T18:57:25.516Z,1.13
2022-07-28T19:02:27.759Z,0.80
2022-07-28T19:07:30.315Z,0.73
2022-07-28T19:12:33.285Z,1.00
2022-07-28T19:17:35.343Z,0.52
2022-07-28T19:22:40.551Z,0.90
2022-07-28T19:27:42.570Z,0.90
2022-07-28T19:32:44.595Z,0.80
2022-07-28T19:37:46.447Z,0.70
2022-07-28T19:42:50.740Z,0.82
2022-07-28T19:47:53.118Z,0.75
2022-07-28T19:52:55.434Z,0.93
2022-07-28T19:57:59.515Z,0.80
2022-07-28T20:03:01.490Z,0.98
2022-07-28T20:08:03.499Z,1.20
2022-07-28T20:13:05.341Z,0.63
2022-07-28T20:18:07.451Z,0.75
2022-07-28T20:23:09.430Z,0.70
2022-07-28T20:28:12.503Z,0.88
2022-07-28T20:33:14.652Z,1.15
2022-07-28T20:38:16.667Z,0.82
2022-07-28T20:43:18.523Z,1.10
2022-07-28T20:48:21.549Z,0.82
2022-07-28T20:53:23.883Z,0.90
2022-07-28T20:58:26.338Z,0.88
2022-07-28T21:03:29.029Z,1.45
2022-07-28T21:08:30.910Z,0.68
2022-07-28T21:13:33.052Z,1.20
2022-07-28T21:18:35.005Z,0.65
2022-07-28T21:23:36.851Z,0.50
2022-07-28T21:28:57.666Z,0.70
2022-07-28T21:33:59.461Z,0.55
2022-07-28T21:39:02.403Z,0.98
2022-07-28T21:44:04.470Z,0.75
2022-07-28T21:49:06.513Z,0.95
2022-07-28T21:54:08.578Z,0.60
2022-07-28T21:59:10.771Z,0.70
2022-07-28T22:04:12.835Z,0.95
2022-07-28T22:09:15.350Z,0.80
2022-07-28T22:14:17.580Z,0.80
2022-07-28T22:19:19.723Z,0.60
2022-07-28T22:24:21.876Z,0.55
2022-07-28T22:29:23.941Z,0.70
2022-07-28T22:34:25.905Z,0.90
2022-07-28T22:39:28.221Z,0.60
2022-07-28T22:44:30.672Z,0.80
2022-07-28T22:49:32.722Z,0.50
2022-07-28T22:54:39.162Z,0.60
2022-07-28T22:59:41.306Z,0.60
2022-07-28T23:04:46.941Z,0.52
2022-07-28T23:09:51.845Z,0.50
2022-07-28T23:14:53.896Z,0.80
2022-07-28T23:19:59.133Z,0.82
2022-07-28T23:25:01.591Z,0.70
2022-07-28T23:30:04.249Z,0.75
2022-07-28T23:35:06.461Z,0.30
2022-07-28T23:40:08.964Z,0.50
2022-07-28T23:45:11.350Z,0.52
2022-07-28T23:50:13.404Z,0.80
2022-07-28T23:55:15.451Z,0.77
